createdAt,value
2022-09-28T00:02:06.231Z,0.60
2022-09-28T00:04:35.242Z,0.50
2022-09-28T00:07:02.968Z,0.70
2022-09-28T00:09:30.728Z,0.60
2022-09-28T00:11:59.857Z,0.90
2022-09-28T00:14:27.641Z,0.70
2022-09-28T00:16:55.306Z,0.63
2022-09-28T00:19:23.015Z,0.80
2022-09-28T00:21:52.196Z,0.80
2022-09-28T00:24:24.015Z,0.80
2022-09-28T00:26:54.095Z,0.83
2022-09-28T00:29:23.766Z,0.70
2022-09-28T00:31:52.635Z,0.70
2022-09-28T00:34:20.489Z,0.60
2022-09-28T00:36:49.089Z,0.80
2022-09-28T00:39:19.286Z,0.60
2022-09-28T00:41:48.163Z,0.50
2022-09-28T00:44:25.427Z,0.70
2022-09-28T00:46:54.491Z,0.77
2022-09-28T00:49:26.510Z,0.63
2022-09-28T00:51:55.729Z,0.80
2022-09-28T00:54:26.015Z,0.83
2022-09-28T00:56:53.791Z,0.63
2022-09-28T00:59:24.347Z,0.70
2022-09-28T01:01:52.139Z,0.60
2022-09-28T01:04:19.951Z,0.63
2022-09-28T01:06:47.877Z,0.60
2022-09-28T01:09:16.324Z,0.73
2022-09-28T01:11:45.431Z,0.70
2022-09-28T01:14:15.161Z,0.70
2022-09-28T01:16:45.836Z,0.70
2022-09-28T01:19:34.632Z,0.80
2022-09-28T01:22:13.053Z,0.60
2022-09-28T01:24:43.033Z,0.65
2022-09-28T01:27:14.462Z,0.63
2022-09-28T01:29:46.046Z,0.65
2022-09-28T01:32:16.209Z,0.70
2022-09-28T01:34:46.439Z,0.60
2022-09-28T01:37:15.229Z,0.70
2022-09-28T01:40:03.103Z,0.82
2022-09-28T01:42:33.908Z,0.70
2022-09-28T01:45:05.880Z,0.70
2022-09-28T01:47:36.476Z,0.70
2022-09-28T01:50:06.212Z,0.60
2022-09-28T01:52:35.931Z,0.73
2022-09-28T01:55:07.181Z,0.70
2022-09-28T01:57:39.580Z,0.65
2022-09-28T02:00:10.559Z,0.73
2022-09-28T02:02:53.930Z,0.60
2022-09-28T02:05:28.018Z,0.60
2022-09-28T02:07:58.650Z,0.70
2022-09-28T02:10:28.902Z,0.67
2022-09-28T02:12:58.960Z,0.70
2022-09-28T02:15:29.299Z,0.73
2022-09-28T02:17:57.391Z,0.60
2022-09-28T02:20:25.306Z,0.60
2022-09-28T02:22:55.733Z,0.70
2022-09-28T02:25:28.667Z,0.70
2022-09-28T02:28:00.275Z,0.60
2022-09-28T02:30:30.717Z,0.60
2022-09-28T02:33:02.140Z,0.70
2022-09-28T02:35:30.406Z,0.80
2022-09-28T02:37:58.539Z,0.70
2022-09-28T02:40:27.895Z,0.70
2022-09-28T02:43:00.906Z,0.60
2022-09-28T02:45:34.006Z,0.60
2022-09-28T02:48:05.774Z,0.68
2022-09-28T02:50:40.591Z,0.90
2022-09-28T02:53:13.741Z,0.60
2022-09-28T02:55:49.811Z,0.70
2022-09-28T02:58:23.192Z,0.60
2022-09-28T03:00:55.899Z,0.52
2022-09-28T03:03:29.889Z,0.63
2022-09-28T03:06:00.970Z,0.70
2022-09-28T03:08:36.942Z,0.60
2022-09-28T03:11:10.640Z,0.70
2022-09-28T03:13:39.948Z,0.60
2022-09-28T03:16:09.740Z,0.60
2022-09-28T03:18:37.555Z,0.98
2022-09-28T03:21:05.769Z,0.83
2022-09-28T03:23:33.642Z,0.73
2022-09-28T03:26:02.692Z,1.25
2022-09-28T03:28:30.969Z,0.60
2022-09-28T03:31:00.204Z,0.60
2022-09-28T03:33:27.970Z,0.70
2022-09-28T03:35:55.636Z,0.70
2022-09-28T03:38:24.266Z,0.70
2022-09-28T03:40:53.786Z,0.70
2022-09-28T03:43:21.594Z,0.80
2022-09-28T03:45:53.085Z,0.70
2022-09-28T03:48:27.641Z,0.63
2022-09-28T03:50:58.664Z,0.90
2022-09-28T03:53:26.730Z,1.05
2022-09-28T03:55:54.494Z,0.60
2022-09-28T03:58:22.667Z,0.88
2022-09-28T04:00:50.985Z,0.90
2022-09-28T04:03:18.987Z,0.67
2022-09-28T04:05:51.309Z,0.80
2022-09-28T04:08:19.363Z,0.70
2022-09-28T04:10:47.260Z,0.87
2022-09-28T04:13:15.148Z,1.83
2022-09-28T04:15:43.234Z,0.80
2022-09-28T04:18:11.840Z,0.77
2022-09-28T04:21:06.616Z,0.70
2022-09-28T04:23:39.631Z,0.75
2022-09-28T04:26:09.768Z,0.95
2022-09-28T04:28:46.318Z,0.90
2022-09-28T04:31:15.869Z,0.60
2022-09-28T04:33:43.668Z,0.60
2022-09-28T04:36:12.679Z,0.83
2022-09-28T04:38:52.782Z,0.73
2022-09-28T04:41:23.137Z,0.83
2022-09-28T04:43:51.211Z,1.00
2022-09-28T04:46:19.871Z,1.00
2022-09-28T04:48:57.626Z,0.98
2022-09-28T04:51:42.307Z,1.00
2022-09-28T04:54:10.001Z,0.90
2022-09-28T04:56:37.635Z,1.00
2022-09-28T04:59:05.379Z,1.00
2022-09-28T05:01:33.247Z,1.03
2022-09-28T05:04:25.629Z,0.80
2022-09-28T05:07:14.960Z,0.90
2022-09-28T05:09:42.750Z,0.90
2022-09-28T05:12:11.346Z,0.83
2022-09-28T05:14:39.293Z,0.83
2022-09-28T05:17:06.931Z,0.97
2022-09-28T05:19:48.137Z,1.10
2022-09-28T05:22:17.131Z,1.20
2022-09-28T05:24:47.401Z,1.13
2022-09-28T05:27:15.832Z,1.10
2022-09-28T05:29:46.631Z,1.10
2022-09-28T05:32:34.209Z,1.40
2022-09-28T05:35:12.652Z,1.10
2022-09-28T05:37:44.551Z,1.47
2022-09-28T05:40:12.782Z,1.10
2022-09-28T05:42:41.539Z,1.13
2022-09-28T05:45:10.161Z,1.20
2022-09-28T05:47:40.327Z,1.33
2022-09-28T05:50:09.425Z,1.20
2022-09-28T05:52:37.373Z,1.50
2022-09-28T05:55:07.206Z,1.30
2022-09-28T05:57:35.408Z,1.50
2022-09-28T06:00:04.221Z,1.20
2022-09-28T06:02:40.413Z,1.63
2022-09-28T06:05:11.250Z,1.53
2022-09-28T06:07:38.936Z,1.50
2022-09-28T06:10:08.212Z,1.50
2022-09-28T06:12:42.155Z,1.37
2022-09-28T06:15:15.024Z,1.27
2022-09-28T06:17:43.996Z,1.57
2022-09-28T06:20:32.849Z,1.40
2022-09-28T06:23:10.026Z,1.60
2022-09-28T06:25:39.325Z,1.40
2022-09-28T06:28:08.388Z,1.50
2022-09-28T06:30:38.393Z,1.40
2022-09-28T06:33:10.766Z,1.60
2022-09-28T06:35:38.448Z,1.70
2022-09-28T06:38:07.351Z,1.67
2022-09-28T06:40:35.396Z,1.17
2022-09-28T06:43:09.815Z,1.90
2022-09-28T06:45:57.787Z,1.40
2022-09-28T06:48:46.466Z,1.67
2022-09-28T06:51:18.625Z,1.50
2022-09-28T06:53:56.452Z,1.80
2022-09-28T06:56:38.324Z,0.93
2022-09-28T06:59:07.376Z,1.00
2022-09-28T07:01:36.730Z,0.80
2022-09-28T07:04:09.944Z,1.10
2022-09-28T07:06:48.764Z,1.40
2022-09-28T07:09:32.982Z,1.40
2022-09-28T07:12:13.354Z,1.20
2022-09-28T07:14:56.247Z,0.80
2022-09-28T07:17:24.962Z,0.93
2022-09-28T07:19:54.089Z,0.90
2022-09-28T07:22:35.513Z,0.80
2022-09-28T07:25:05.979Z,0.90
2022-09-28T07:27:48.111Z,1.10
2022-09-28T07:30:23.010Z,1.10
2022-09-28T07:33:01.725Z,1.20
2022-09-28T07:35:38.569Z,1.30
2022-09-28T07:38:07.528Z,1.20
2022-09-28T07:40:48.424Z,0.93
2022-09-28T07:43:20.556Z,1.10
2022-09-28T07:45:54.081Z,1.00
2022-09-28T07:48:22.229Z,1.00
2022-09-28T07:51:09.971Z,1.10
2022-09-28T07:53:40.944Z,0.80
2022-09-28T07:56:28.629Z,0.80
2022-09-28T07:59:10.392Z,1.00
2022-09-28T08:01:46.365Z,0.80
2022-09-28T08:04:15.348Z,0.67
2022-09-28T08:06:44.912Z,0.93
2022-09-28T08:09:14.200Z,0.70
2022-09-28T08:12:04.008Z,0.60
2022-09-28T08:14:44.831Z,0.93
2022-09-28T08:17:33.994Z,0.77
2022-09-28T08:20:18.045Z,0.77
2022-09-28T08:22:45.748Z,0.57
2022-09-28T08:25:13.394Z,0.70
2022-09-28T08:27:41.070Z,0.60
2022-09-28T08:30:09.384Z,0.70
2022-09-28T08:32:49.697Z,0.70
2022-09-28T08:35:37.285Z,0.60
2022-09-28T08:38:15.933Z,0.80
2022-09-28T08:41:06.209Z,0.77
2022-09-28T08:43:53.744Z,1.03
2022-09-28T08:46:32.794Z,0.93
2022-09-28T08:49:26.357Z,0.80
2022-09-28T08:52:10.781Z,0.83
2022-09-28T08:54:56.103Z,1.03
2022-09-28T08:57:34.883Z,0.80
2022-09-28T09:00:05.363Z,1.00
2022-09-28T09:02:39.856Z,0.93
2022-09-28T09:05:19.919Z,0.90
2022-09-28T09:08:09.615Z,1.20
2022-09-28T09:10:42.611Z,0.90
2022-09-28T09:13:28.241Z,0.82
2022-09-28T09:15:57.141Z,1.02
2022-09-28T09:18:49.217Z,0.73
2022-09-28T09:21:42.514Z,0.70
2022-09-28T09:24:19.586Z,0.65
2022-09-28T09:26:48.619Z,0.75
2022-09-28T09:29:22.891Z,0.60
2022-09-28T09:32:03.989Z,0.70
2022-09-28T09:34:36.299Z,0.88
2022-09-28T09:37:34.448Z,0.70
2022-09-28T09:40:30.466Z,0.70
2022-09-28T09:43:34.021Z,0.60
2022-09-28T09:46:24.453Z,1.20
2022-09-28T09:48:57.581Z,0.70
2022-09-28T09:51:29.476Z,1.10
2022-09-28T09:54:00.551Z,1.38
2022-09-28T09:56:34.498Z,1.27
2022-09-28T09:59:11.306Z,0.70
2022-09-28T10:01:56.927Z,0.70
2022-09-28T10:04:41.033Z,1.40
2022-09-28T10:07:22.546Z,1.05
2022-09-28T10:09:54.025Z,0.70
2022-09-28T10:12:34.155Z,0.70
2022-09-28T10:15:03.115Z,1.80
2022-09-28T10:17:33.244Z,1.20
2022-09-28T10:20:22.948Z,1.17
2022-09-28T10:23:12.461Z,1.30
2022-09-28T10:25:43.422Z,1.52
2022-09-28T10:28:17.047Z,1.23
2022-09-28T10:30:45.235Z,0.80
2022-09-28T10:33:28.623Z,1.77
2022-09-28T10:35:57.784Z,0.90
2022-09-28T10:38:25.497Z,0.70
2022-09-28T10:41:00.080Z,0.60
2022-09-28T10:44:14.408Z,0.95
2022-09-28T10:46:57.213Z,0.82
2022-09-28T10:49:26.888Z,0.80
2022-09-28T10:51:58.243Z,0.90
2022-09-28T10:54:31.294Z,0.90
2022-09-28T10:57:02.092Z,0.90
2022-09-28T10:59:40.629Z,0.80
2022-09-28T11:02:35.467Z,0.85
2022-09-28T11:05:21.588Z,0.90
2022-09-28T11:07:50.069Z,0.95
2022-09-28T11:10:25.109Z,0.60
2022-09-28T11:12:57.466Z,0.80
2022-09-28T11:15:29.199Z,0.68
2022-09-28T11:17:57.206Z,1.50
2022-09-28T11:20:31.214Z,0.80
2022-09-28T11:23:02.819Z,0.60
2022-09-28T11:25:34.268Z,0.90
2022-09-28T11:28:04.956Z,0.60
2022-09-28T11:30:34.941Z,0.65
2022-09-28T11:33:28.238Z,0.68
2022-09-28T11:36:14.479Z,0.63
2022-09-28T11:38:46.046Z,0.70
2022-09-28T11:41:31.131Z,0.70
2022-09-28T11:44:07.841Z,0.68
2022-09-28T11:46:41.959Z,0.68
2022-09-28T11:49:28.762Z,0.80
2022-09-28T11:51:58.114Z,0.70
2022-09-28T11:54:28.868Z,0.70
2022-09-28T11:56:58.783Z,0.70
2022-09-28T11:59:30.572Z,0.80
2022-09-28T12:01:59.495Z,0.82
2022-09-28T12:04:36.855Z,0.63
2022-09-28T12:07:07.939Z,0.70
2022-09-28T12:09:38.993Z,0.90
2022-09-28T12:12:18.056Z,0.80
2022-09-28T12:14:48.095Z,0.80
2022-09-28T12:17:20.530Z,0.73
2022-09-28T12:19:49.775Z,1.00
2022-09-28T12:22:20.300Z,1.00
2022-09-28T12:24:50.043Z,1.13
2022-09-28T12:27:22.535Z,0.90
2022-09-28T12:29:55.015Z,0.85
2022-09-28T12:32:27.580Z,0.77
2022-09-28T12:34:55.348Z,0.88
2022-09-28T12:37:33.020Z,0.68
2022-09-28T12:40:08.555Z,1.00
2022-09-28T12:42:45.953Z,0.70
2022-09-28T12:45:23.841Z,0.70
2022-09-28T12:48:01.364Z,0.80
2022-09-28T12:50:38.562Z,0.80
2022-09-28T12:53:15.114Z,0.90
2022-09-28T12:55:54.177Z,0.60
2022-09-28T12:58:33.809Z,0.80
2022-09-28T13:01:07.725Z,0.70
2022-09-28T13:03:45.688Z,0.68
2022-09-28T13:06:25.183Z,0.60
2022-09-28T13:09:02.541Z,0.70
2022-09-28T13:11:34.011Z,0.60
2022-09-28T13:14:23.816Z,0.63
2022-09-28T13:16:59.761Z,0.88
2022-09-28T13:19:33.470Z,0.77
2022-09-28T13:22:07.899Z,0.93
2022-09-28T13:24:37.897Z,0.75
2022-09-28T13:27:08.387Z,1.20
2022-09-28T13:32:09.548Z,0.90
2022-09-28T13:34:37.752Z,1.15
2022-09-28T13:37:11.218Z,1.02
2022-09-28T13:39:48.769Z,1.00
2022-09-28T13:42:25.624Z,0.80
2022-09-28T13:45:02.545Z,0.85
2022-09-28T13:47:42.894Z,0.80
2022-09-28T13:50:19.292Z,0.73
2022-09-28T13:52:50.239Z,0.65
2022-09-28T13:55:23.123Z,0.60
2022-09-28T13:57:52.922Z,0.65
2022-09-28T14:00:24.087Z,0.88
2022-09-28T14:02:54.764Z,0.77
2022-09-28T14:05:34.257Z,0.70
2022-09-28T14:08:24.319Z,1.30
2022-09-28T14:10:53.336Z,0.70
2022-09-28T14:13:30.887Z,0.70
2022-09-28T14:16:21.311Z,0.60
2022-09-28T14:18:51.064Z,0.80
2022-09-28T14:21:33.709Z,0.60
2022-09-28T14:24:09.607Z,0.70
2022-09-28T14:26:43.499Z,0.60
2022-09-28T14:29:17.821Z,0.50
2022-09-28T14:31:45.696Z,0.60
2022-09-28T14:34:28.370Z,0.50
2022-09-28T14:37:09.007Z,0.47
2022-09-28T14:39:47.402Z,0.70
2022-09-28T14:42:17.565Z,0.50
2022-09-28T14:44:55.450Z,0.50
2022-09-28T14:47:27.157Z,0.57
2022-09-28T14:50:01.021Z,0.50
2022-09-28T14:52:38.969Z,0.60
2022-09-28T14:55:13.659Z,0.70
2022-09-28T14:57:42.191Z,0.60
2022-09-28T15:00:16.163Z,0.60
2022-09-28T15:02:48.529Z,0.73
2022-09-28T15:05:17.770Z,0.70
2022-09-28T15:07:48.034Z,0.70
2022-09-28T15:10:27.445Z,0.70
2022-09-28T15:12:57.637Z,0.73
2022-09-28T15:15:28.751Z,0.80
2022-09-28T15:18:02.429Z,1.20
2022-09-28T15:20:31.310Z,0.90
2022-09-28T15:23:00.004Z,0.75
2022-09-28T15:25:29.782Z,0.60
2022-09-28T15:27:58.149Z,0.85
2022-09-28T15:30:27.819Z,0.70
2022-09-28T15:32:56.977Z,0.60
2022-09-28T15:35:24.825Z,0.70
2022-09-28T15:37:53.294Z,0.60
2022-09-28T15:40:25.376Z,0.50
2022-09-28T15:42:59.055Z,0.50
2022-09-28T15:45:30.701Z,0.70
2022-09-28T15:48:18.446Z,0.80
2022-09-28T15:50:56.906Z,0.60
2022-09-28T15:53:24.656Z,0.70
2022-09-28T15:55:52.338Z,0.87
2022-09-28T15:58:22.606Z,1.03
2022-09-28T16:00:51.597Z,0.80
2022-09-28T16:03:22.093Z,0.73
2022-09-28T16:05:50.903Z,0.70
2022-09-28T16:08:24.607Z,0.70
2022-09-28T16:10:54.952Z,0.80
2022-09-28T16:13:24.276Z,0.60
2022-09-28T16:15:57.900Z,1.10
2022-09-28T16:18:26.504Z,0.90
2022-09-28T16:20:56.057Z,1.33
2022-09-28T16:23:25.772Z,1.00
2022-09-28T16:25:55.051Z,1.07
2022-09-28T16:28:33.659Z,1.00
2022-09-28T16:31:03.069Z,1.00
2022-09-28T16:33:32.456Z,1.10
2022-09-28T16:36:02.746Z,0.80
2022-09-28T16:38:30.793Z,1.20
2022-09-28T16:41:02.714Z,1.10
2022-09-28T16:43:32.691Z,0.90
2022-09-28T16:46:02.030Z,1.07
2022-09-28T16:48:31.251Z,0.93
2022-09-28T16:50:59.571Z,0.90
2022-09-28T16:53:37.386Z,1.27
2022-09-28T16:56:05.657Z,1.20
2022-09-28T16:58:35.190Z,1.10
2022-09-28T17:01:03.100Z,1.60
2022-09-28T17:03:30.806Z,1.30
2022-09-28T17:05:58.706Z,1.03
2022-09-28T17:08:26.660Z,1.10
2022-09-28T17:11:13.803Z,1.37
2022-09-28T17:13:45.852Z,1.40
2022-09-28T17:16:15.344Z,1.20
2022-09-28T17:18:43.177Z,1.10
2022-09-28T17:21:13.077Z,1.13
2022-09-28T17:23:40.733Z,0.90
2022-09-28T17:26:09.002Z,1.23
2022-09-28T17:28:37.400Z,1.13
2022-09-28T17:31:07.927Z,1.40
2022-09-28T17:33:35.726Z,1.13
2022-09-28T17:36:04.675Z,1.47
2022-09-28T17:38:32.447Z,1.30
2022-09-28T17:41:00.214Z,1.20
2022-09-28T17:43:27.900Z,1.00
2022-09-28T17:45:55.757Z,1.33
2022-09-28T17:48:25.783Z,1.00
2022-09-28T17:50:53.414Z,1.17
2022-09-28T17:53:21.084Z,1.30
2022-09-28T17:55:49.089Z,1.13
2022-09-28T17:58:18.111Z,1.30
2022-09-28T18:00:46.977Z,0.83
2022-09-28T18:03:16.539Z,0.90
2022-09-28T18:05:46.621Z,1.20
2022-09-28T18:08:15.079Z,0.90
2022-09-28T18:10:42.851Z,1.00
2022-09-28T18:13:10.872Z,0.97
2022-09-28T18:15:38.601Z,1.30
2022-09-28T18:18:09.428Z,1.20
2022-09-28T18:20:37.922Z,0.90
2022-09-28T18:23:06.858Z,1.20
2022-09-28T18:25:34.566Z,1.40
2022-09-28T18:28:02.326Z,1.20
2022-09-28T18:30:30.068Z,2.10
2022-09-28T18:32:57.768Z,1.40
2022-09-28T18:35:25.517Z,2.13
2022-09-28T18:37:53.549Z,2.13
2022-09-28T18:40:22.688Z,2.50
2022-09-28T18:42:50.812Z,1.63
2022-09-28T18:45:19.319Z,1.47
2022-09-28T18:47:47.438Z,1.53
2022-09-28T18:50:15.837Z,1.27
2022-09-28T18:52:44.476Z,1.13
2022-09-28T18:55:12.664Z,1.33
2022-09-28T18:57:42.595Z,1.90
2022-09-28T19:00:11.383Z,1.33
2022-09-28T19:02:42.853Z,1.00
2022-09-28T19:05:10.851Z,1.17
2022-09-28T19:07:38.627Z,1.43
2022-09-28T19:10:06.652Z,1.53
2022-09-28T19:12:34.656Z,1.63
2022-09-28T19:15:03.620Z,1.70
2022-09-28T19:17:35.416Z,1.63
2022-09-28T19:20:03.089Z,1.40
2022-09-28T19:22:31.387Z,1.70
2022-09-28T19:24:59.066Z,1.70
2022-09-28T19:27:26.784Z,1.53
2022-09-28T19:29:54.507Z,1.77
2022-09-28T19:32:23.907Z,1.90
2022-09-28T19:34:51.623Z,1.97
2022-09-28T19:37:19.351Z,2.00
2022-09-28T19:39:47.099Z,1.90
2022-09-28T19:42:14.802Z,1.70
2022-09-28T19:44:43.869Z,2.20
2022-09-28T19:47:12.960Z,1.50
2022-09-28T19:49:42.068Z,1.50
2022-09-28T19:52:15.628Z,1.50
2022-09-28T19:54:44.887Z,1.40
2022-09-28T19:57:12.824Z,1.40
2022-09-28T19:59:40.540Z,1.30
2022-09-28T20:02:09.084Z,0.87
2022-09-28T20:04:36.757Z,1.10
2022-09-28T20:07:05.898Z,1.00
2022-09-28T20:09:33.943Z,1.10
2022-09-28T20:12:01.697Z,1.00
2022-09-28T20:14:33.996Z,1.07
2022-09-28T20:17:05.595Z,0.80
2022-09-28T20:19:33.543Z,1.00
2022-09-28T20:22:02.497Z,0.90
2022-09-28T20:24:31.923Z,0.80
2022-09-28T20:27:01.115Z,0.73
2022-09-28T20:29:28.845Z,0.70
2022-09-28T20:31:56.678Z,0.80
2022-09-28T20:34:24.409Z,0.73
2022-09-28T20:36:52.081Z,1.00
2022-09-28T20:39:19.845Z,0.93
2022-09-28T20:41:49.253Z,0.73
2022-09-28T20:44:17.156Z,0.83
2022-09-28T20:46:45.146Z,0.80
2022-09-28T20:49:12.854Z,0.70
2022-09-28T20:51:41.362Z,0.93
2022-09-28T20:54:09.062Z,0.80
2022-09-28T20:56:38.206Z,0.70
2022-09-28T20:59:07.736Z,0.77
2022-09-28T21:01:35.717Z,0.77
2022-09-28T21:04:04.596Z,0.70
2022-09-28T21:06:33.183Z,0.70
2022-09-28T21:09:01.029Z,0.70
2022-09-28T21:11:29.688Z,0.90
2022-09-28T21:13:58.511Z,0.80
2022-09-28T21:16:28.444Z,0.70
2022-09-28T21:18:56.480Z,0.80
2022-09-28T21:21:27.505Z,1.07
2022-09-28T21:23:55.613Z,0.87
2022-09-28T21:26:25.604Z,0.80
2022-09-28T21:28:53.936Z,0.97
2022-09-28T21:31:26.239Z,0.70
2022-09-28T21:33:57.414Z,0.63
2022-09-28T21:36:25.622Z,0.70
2022-09-28T21:38:53.555Z,0.80
2022-09-28T21:41:21.339Z,0.80
2022-09-28T21:43:49.010Z,0.60
2022-09-28T21:46:17.555Z,0.60
2022-09-28T21:48:45.390Z,0.60
2022-09-28T21:51:15.369Z,0.50
2022-09-28T21:53:43.551Z,0.70
2022-09-28T21:56:12.732Z,0.87
2022-09-28T21:58:40.630Z,0.60
2022-09-28T22:01:09.439Z,0.80
2022-09-28T22:03:37.525Z,0.90
2022-09-28T22:06:05.880Z,0.90
2022-09-28T22:08:35.410Z,0.80
2022-09-28T22:11:05.614Z,0.90
2022-09-28T22:13:34.334Z,0.80
2022-09-28T22:16:02.383Z,0.53
2022-09-28T22:18:30.984Z,0.80
2022-09-28T22:20:59.770Z,0.60
2022-09-28T22:23:27.633Z,0.60
2022-09-28T22:26:00.167Z,0.57
2022-09-28T22:28:28.546Z,0.70
2022-09-28T22:30:56.609Z,0.70
2022-09-28T22:33:24.945Z,0.70
2022-09-28T22:35:53.060Z,0.70
2022-09-28T22:38:21.151Z,0.60
2022-09-28T22:40:49.185Z,0.80
2022-09-28T22:43:18.712Z,0.70
2022-09-28T22:45:46.497Z,0.67
2022-09-28T22:48:14.494Z,0.70
2022-09-28T22:50:48.821Z,0.60
2022-09-28T22:53:16.633Z,0.70
2022-09-28T22:55:44.425Z,0.60
2022-09-28T22:58:12.527Z,0.50
2022-09-28T23:00:41.689Z,0.60
2022-09-28T23:03:09.574Z,0.80
2022-09-28T23:05:37.368Z,0.70
2022-09-28T23:08:05.002Z,0.60
2022-09-28T23:10:32.735Z,0.70
2022-09-28T23:13:00.353Z,0.73
2022-09-28T23:15:28.922Z,0.70
2022-09-28T23:17:57.891Z,0.70
2022-09-28T23:20:25.596Z,0.63
2022-09-28T23:22:53.219Z,0.60
2022-09-28T23:25:21.202Z,0.80
2022-09-28T23:27:49.608Z,0.90
2022-09-28T23:30:19.083Z,0.53
2022-09-28T23:32:47.585Z,0.90
2022-09-28T23:35:16.609Z,0.50
2022-09-28T23:37:44.475Z,0.60
2022-09-28T23:40:12.117Z,0.63
2022-09-28T23:42:39.813Z,0.60
2022-09-28T23:45:07.871Z,0.57
2022-09-28T23:47:37.317Z,0.40
2022-09-28T23:50:05.258Z,0.50
2022-09-28T23:52:34.203Z,0.70
2022-09-28T23:55:02.020Z,0.57
2022-09-28T23:57:29.654Z,0.47
2022-09-28T23:59:57.341Z,0.60
